Time;durP1;ratioP1;P1;durP2;ratioP2;P2;SDS_P1;SDS_P2;PMS_P1;PMS_P2;Temp;Humidity;BMP_temperature;BMP_pressure;BME280_temperature;BME280_humidity;BME280_pressure;Samples;Min_cycle;Max_cycle;Signal;HPM_P1;HPM_P2
2021/12/28 00:00:08;;;;;;;23.98;12.38;;;;;;;20.19;31.74;100615.53;2111100;28;20060;-67
2021/12/28 00:01:18;;;;;;;24.98;13.15;;;;;;;20.19;31.84;100612.78;2119574;27;20069;-67
2021/12/28 00:02:22;;;;;;;22.58;12.45;;;;;;;20.19;31.70;100615.53;2119110;28;20058;-67
2021/12/28 00:03:29;;;;;;;20.90;12.80;;;;;;;20.20;31.73;100613.59;2119356;28;20619;-66
2021/12/28 00:04:32;;;;;;;24.50;12.77;;;;;;;20.20;31.81;100614.38;2118357;28;20044;-66
2021/12/28 00:05:37;;;;;;;20.95;12.00;;;;;;;20.19;31.91;100610.06;2110419;28;20058;-68
2021/12/28 00:06:42;;;;;;;21.80;12.25;;;;;;;20.20;31.94;100611.63;2118870;28;20058;-67
2021/12/28 00:07:45;;;;;;;22.38;11.57;;;;;;;20.20;31.77;100606.13;2118831;27;20047;-68
2021/12/28 00:08:49;;;;;;;21.30;11.52;;;;;;;20.21;31.81;100599.53;2118934;27;20059;-68
2021/12/28 00:09:53;;;;;;;21.25;11.88;;;;;;;20.21;31.94;100605.00;2119716;27;20051;-67
2021/12/28 00:11:00;;;;;;;21.73;11.90;;;;;;;20.21;31.79;100596.78;2111295;28;20043;-67
2021/12/28 00:12:09;;;;;;;21.05;11.85;;;;;;;20.23;31.88;100605.41;2112753;28;20063;-68
2021/12/28 00:13:13;;;;;;;21.42;11.95;;;;;;;20.21;31.86;100594.03;2120016;28;20043;-67
2021/12/28 00:14:22;;;;;;;24.67;12.23;;;;;;;20.24;31.90;100603.50;2118739;27;20054;-67
2021/12/28 00:15:34;;;;;;;20.67;11.40;;;;;;;20.23;31.84;100601.88;2119419;28;20047;-67
2021/12/28 00:18:02;;;;;;;20.42;11.18;;;;;;;20.22;31.88;100595.63;2117669;28;20498;-68
2021/12/28 00:19:09;;;;;;;17.67;11.05;;;;;;;20.23;31.80;100601.88;2119429;27;20739;-68
2021/12/28 00:20:13;;;;;;;19.55;11.02;;;;;;;20.23;31.94;100597.19;2119466;28;20035;-65
2021/12/28 00:21:18;;;;;;;20.13;11.02;;;;;;;20.23;31.92;100597.19;2118661;28;20733;-66
2021/12/28 00:22:23;;;;;;;21.60;12.13;;;;;;;20.23;31.82;100591.69;2117825;28;20039;-65
2021/12/28 00:23:31;;;;;;;22.58;11.63;;;;;;;20.23;31.92;100588.97;2119317;27;20375;-65
2021/12/28 00:24:36;;;;;;;21.00;11.60;;;;;;;20.23;31.80;100590.91;2118579;28;20181;-65
2021/12/28 00:25:42;;;;;;;21.63;12.55;;;;;;;20.23;31.84;100586.22;2111101;28;20048;-65
2021/12/28 00:26:48;;;;;;;23.20;11.60;;;;;;;20.22;31.94;100590.13;2118073;28;20055;-65
2021/12/28 00:27:50;;;;;;;20.73;11.60;;;;;;;20.23;31.88;100590.91;2118365;28;20051;-65
2021/12/28 00:28:56;;;;;;;19.15;11.25;;;;;;;20.24;31.80;100585.06;2110472;28;20051;-67
2021/12/28 00:30:01;;;;;;;20.70;11.65;;;;;;;20.24;31.92;100587.03;2110939;28;20047;-67
2021/12/28 00:31:11;;;;;;;23.15;11.40;;;;;;;20.24;31.87;100582.34;2118652;28;20062;-67
2021/12/28 00:32:14;;;;;;;22.05;11.95;;;;;;;20.24;31.80;100584.28;2119529;27;20058;-67
2021/12/28 00:33:19;;;;;;;22.38;11.40;;;;;;;20.24;31.89;100570.56;2118715;28;20465;-68
2021/12/28 00:34:24;;;;;;;19.15;11.15;;;;;;;20.24;31.99;100571.38;2118751;28;20043;-68
2021/12/28 00:35:34;;;;;;;19.88;10.95;;;;;;;20.24;31.97;100571.38;2119204;28;20043;-68
2021/12/28 00:36:38;;;;;;;;;;;;;;;20.25;31.92;100566.66;2118956;27;20051;-68
2021/12/28 00:37:42;;;;;;;21.88;11.07;;;;;;;20.24;32.04;100563.13;2119439;27;19927;-68
2021/12/28 00:38:46;;;;;;;19.40;10.93;;;;;;;20.24;31.92;100571.38;2119523;28;20105;-68
2021/12/28 00:39:50;;;;;;;20.35;11.65;;;;;;;20.24;31.95;100571.38;2119916;28;20054;-68
2021/12/28 00:40:58;;;;;;;20.67;11.45;;;;;;;20.25;31.90;100564.72;2118815;28;20047;-68
2021/12/28 00:42:02;;;;;;;20.38;10.93;;;;;;;20.23;31.83;100572.50;2118831;27;20384;-68
2021/12/28 00:43:09;;;;;;;18.15;10.85;;;;;;;20.25;31.98;100572.16;2118343;28;20051;-68
2021/12/28 00:44:15;;;;;;;18.95;11.18;;;;;;;20.25;31.96;100572.94;2110911;28;20040;-69
2021/12/28 00:45:18;;;;;;;20.63;10.90;;;;;;;20.26;31.84;100581.97;2118277;28;20047;-69
2021/12/28 00:46:22;;;;;;;19.80;11.00;;;;;;;20.28;31.92;100574.16;2119144;28;20043;-68
2021/12/28 00:47:26;;;;;;;19.35;11.13;;;;;;;20.27;31.91;100570.63;2118523;28;20589;-68
2021/12/28 00:48:31;;;;;;;17.50;10.65;;;;;;;20.28;31.95;100571.44;2119013;27;20067;-68
2021/12/28 00:49:37;;;;;;;18.30;10.60;;;;;;;20.30;31.92;100577.34;2118736;27;20059;-68
2021/12/28 00:50:43;;;;;;;19.65;10.65;;;;;;;20.30;31.95;100574.59;2119439;27;20058;-68
2021/12/28 00:51:50;;;;;;;16.55;10.02;;;;;;;20.30;31.90;100575.41;2118674;28;20643;-68
2021/12/28 00:52:56;;;;;;;16.67;10.50;;;;;;;20.30;31.94;100589.13;2110522;28;20395;-68
2021/12/28 00:54:03;;;;;;;20.65;10.85;;;;;;;20.31;31.94;100576.19;2119219;28;20070;-68
2021/12/28 00:55:10;;;;;;;17.67;10.13;;;;;;;20.32;31.86;100586.78;2118765;28;20074;-69
2021/12/28 00:56:16;;;;;;;19.42;10.32;;;;;;;20.31;31.82;100576.97;2118642;27;20051;-67
2021/12/28 00:57:20;;;;;;;19.63;10.70;;;;;;;20.34;32.09;100580.94;2121078;27;20050;-67
2021/12/28 00:58:25;;;;;;;19.45;10.27;;;;;;;20.35;31.99;100577.81;2120679;27;20054;-68
2021/12/28 00:59:29;;;;;;;22.92;10.25;;;;;;;20.35;32.11;100577.03;2121013;27;20057;-67
2021/12/28 01:00:36;;;;;;;16.77;10.10;;;;;;;20.36;31.86;100579.44;2121008;27;20058;-68
2021/12/28 01:01:40;;;;;;;17.63;10.10;;;;;;;20.36;32.19;100581.38;2121398;27;20078;-68
2021/12/28 01:02:45;;;;;;;17.30;9.77;;;;;;;20.38;32.19;100578.25;2120431;27;20051;-68
2021/12/28 01:03:48;;;;;;;17.95;11.13;;;;;;;20.36;32.16;100579.44;2119664;27;20051;-67
2021/12/28 01:04:59;;;;;;;21.17;10.57;;;;;;;20.36;32.26;100584.91;2119798;27;20607;-67
2021/12/28 01:06:03;;;;;;;19.25;10.07;;;;;;;20.36;32.18;100579.44;2120413;27;20043;-68
2021/12/28 01:07:07;;;;;;;19.15;9.95;;;;;;;20.38;32.09;100581.00;2112108;28;20096;-67
2021/12/28 01:08:10;;;;;;;16.50;9.50;;;;;;;20.36;32.24;100579.44;2120094;27;20517;-67
2021/12/28 01:09:18;;;;;;;20.25;10.80;;;;;;;20.36;32.25;100582.16;2119795;27;20091;-67
2021/12/28 01:10:29;;;;;;;18.48;10.13;;;;;;;20.35;32.15;100583.31;2119329;27;20051;-68
2021/12/28 01:11:39;;;;;;;18.25;10.00;;;;;;;20.34;32.15;100580.94;2112917;28;20078;-68
2021/12/28 01:12:45;;;;;;;18.80;10.13;;;;;;;20.33;32.29;100579.38;2112539;28;20079;-67
2021/12/28 01:13:50;;;;;;;18.50;10.20;;;;;;;20.32;32.32;100577.75;2112102;28;20068;-67
2021/12/28 01:14:53;;;;;;;17.92;10.20;;;;;;;20.32;32.37;100580.50;2111861;28;20507;-67
2021/12/28 01:15:58;;;;;;;17.67;10.00;;;;;;;20.32;32.29;100573.06;2111774;27;20066;-68
2021/12/28 01:17:03;;;;;;;17.88;10.48;;;;;;;20.30;32.34;100578.13;2112249;28;20051;-67
2021/12/28 01:18:08;;;;;;;16.92;9.93;;;;;;;20.31;32.34;100578.94;2111843;28;20059;-68
2021/12/28 01:19:11;;;;;;;17.52;10.00;;;;;;;20.31;32.42;100576.19;2112355;28;20039;-68
2021/12/28 01:20:17;;;;;;;17.60;9.70;;;;;;;20.31;32.44;100566.00;2111178;28;20609;-68
2021/12/28 01:21:22;;;;;;;18.13;9.75;;;;;;;20.30;32.56;100566.38;2118018;27;20117;-68
2021/12/28 01:22:25;;;;;;;15.63;9.10;;;;;;;20.30;32.52;100575.41;2120896;27;20043;-68
2021/12/28 01:23:31;;;;;;;17.67;9.68;;;;;;;20.30;32.44;100569.13;2120749;27;20425;-68
2021/12/28 01:24:35;;;;;;;15.02;9.07;;;;;;;20.30;32.69;100569.91;2120210;27;20055;-68
2021/12/28 01:25:41;;;;;;;16.33;9.75;;;;;;;20.31;32.43;100563.25;2120495;27;20044;-69
2021/12/28 01:26:45;;;;;;;19.38;9.88;;;;;;;20.29;32.52;100562.81;2120056;27;20047;-68
2021/12/28 01:27:49;;;;;;;18.30;9.93;;;;;;;20.31;32.37;100565.22;2120910;27;20054;-68
2021/12/28 01:28:53;;;;;;;15.88;9.32;;;;;;;20.32;32.42;100553.06;2120743;27;20058;-68
2021/12/28 01:29:58;;;;;;;17.42;10.38;;;;;;;20.32;32.42;100561.31;2120050;27;20051;-68
2021/12/28 01:31:04;;;;;;;16.65;9.60;;;;;;;20.32;32.48;100561.31;2119934;27;20043;-68
2021/12/28 01:32:10;;;;;;;16.73;9.52;;;;;;;20.31;32.35;100554.22;2119958;27;20059;-68
2021/12/28 01:33:15;;;;;;;16.90;9.82;;;;;;;20.32;32.42;100561.31;2119385;27;20114;-68
2021/12/28 01:34:20;;;;;;;17.08;9.65;;;;;;;20.30;32.34;100547.16;2120853;27;20100;-68
2021/12/28 01:35:27;;;;;;;14.52;9.20;;;;;;;20.31;32.43;100546.00;2121011;27;20509;-68
2021/12/28 01:36:30;;;;;;;18.83;10.18;;;;;;;20.32;32.37;100550.31;2120306;27;20055;-69
2021/12/28 01:37:34;;;;;;;15.55;9.40;;;;;;;20.31;32.41;100546.78;2120716;27;20047;-68
2021/12/28 01:38:39;;;;;;;16.10;9.65;;;;;;;20.31;32.48;100546.78;2120401;27;20055;-69
2021/12/28 01:39:44;;;;;;;16.35;9.05;;;;;;;20.31;32.50;100544.06;2121244;27;20035;-69
2021/12/28 01:40:49;;;;;;;16.35;9.23;;;;;;;20.30;32.38;100539.72;2120719;27;20699;-69
2021/12/28 01:41:53;;;;;;;16.23;9.52;;;;;;;20.31;32.35;100538.56;2120273;27;20054;-69
2021/12/28 01:43:00;;;;;;;16.35;9.55;;;;;;;20.32;32.50;100536.59;2119328;27;20043;-69
2021/12/28 01:44:08;;;;;;;17.25;9.73;;;;;;;20.32;32.35;100531.91;2119433;27;20805;-69
2021/12/28 01:45:12;;;;;;;16.13;8.77;;;;;;;20.33;32.31;100539.00;2120145;27;20060;-68
2021/12/28 01:46:20;;;;;;;17.17;9.43;;;;;;;20.34;32.28;100528.81;2120051;27;20039;-68
2021/12/28 01:47:24;;;;;;;16.67;9.43;;;;;;;20.33;32.61;100530.78;2120778;27;20047;-68
2021/12/28 01:48:32;;;;;;;19.33;9.48;;;;;;;20.31;32.48;100530.34;2120840;27;20051;-68
2021/12/28 01:49:38;;;;;;;16.52;9.68;;;;;;;20.31;32.44;100527.59;2120321;27;20529;-68
2021/12/28 01:50:48;;;;;;;17.42;9.10;;;;;;;20.32;32.49;100529.16;2119489;27;20051;-69
2021/12/28 01:51:57;;;;;;;17.38;9.07;;;;;;;20.31;32.53;100522.09;2120074;27;20090;-69
2021/12/28 01:53:02;;;;;;;16.70;9.07;;;;;;;20.32;32.45;100517.41;2119259;27;20379;-68
2021/12/28 01:54:09;;;;;;;17.40;9.18;;;;;;;20.31;32.64;100511.13;2120807;27;20600;-68
2021/12/28 01:55:14;;;;;;;17.73;9.30;;;;;;;20.33;32.63;100517.06;2119995;27;20483;-68
2021/12/28 01:56:26;;;;;;;18.63;9.30;;;;;;;20.33;32.72;100519.78;2120385;27;20043;-68
2021/12/28 01:57:29;;;;;;;15.75;9.18;;;;;;;20.33;32.65;100508.81;2120082;27;20602;-67
2021/12/28 01:58:34;;;;;;;18.70;9.30;;;;;;;20.33;32.62;100506.06;2120308;27;20275;-67
2021/12/28 01:59:36;;;;;;;17.60;9.25;;;;;;;20.33;32.35;100508.81;2119520;27;20059;-67
2021/12/28 02:00:43;;;;;;;14.50;9.05;;;;;;;20.32;32.59;100504.47;2111138;28;20438;-67
2021/12/28 02:01:47;;;;;;;15.30;9.10;;;;;;;20.31;32.57;100505.66;2119639;27;20043;-67
2021/12/28 02:02:52;;;;;;;14.68;8.70;;;;;;;20.33;32.58;100497.84;2120145;27;20062;-68
2021/12/28 02:03:58;;;;;;;16.63;8.73;;;;;;;20.32;32.59;100496.25;2119934;27;20062;-68
2021/12/28 02:05:01;;;;;;;13.63;8.25;;;;;;;20.33;32.63;100497.84;2120621;27;20039;-70
2021/12/28 02:06:09;;;;;;;14.80;8.63;;;;;;;20.33;32.54;100497.84;2120897;27;20062;-66
2021/12/28 02:07:13;;;;;;;18.17;9.20;;;;;;;20.32;32.43;100504.47;2120357;27;20128;-67
2021/12/28 02:08:19;;;;;;;14.40;8.93;;;;;;;20.32;32.48;100489.97;2120405;27;20047;-66
2021/12/28 02:09:25;;;;;;;16.42;9.25;;;;;;;20.31;32.59;100494.66;2120339;27;20050;-65
2021/12/28 02:10:28;;;;;;;13.77;8.70;;;;;;;20.32;32.55;100490.75;2120065;27;20410;-67
2021/12/28 02:11:33;;;;;;;14.57;8.35;;;;;;;20.32;32.33;100485.28;2111711;28;20051;-66
2021/12/28 02:12:37;;;;;;;18.23;9.63;;;;;;;20.31;32.30;100491.94;2112115;28;20048;-68
2021/12/28 02:13:41;;;;;;;13.90;8.05;;;;;;;20.30;32.58;100489.56;2112119;28;20052;-67
2021/12/28 02:14:45;;;;;;;14.55;8.75;;;;;;;20.30;32.56;100482.13;2111733;28;20051;-67
2021/12/28 02:15:53;;;;;;;13.80;8.43;;;;;;;20.30;32.56;100481.34;2110981;28;20462;-68
2021/12/28 02:16:57;;;;;;;16.25;8.77;;;;;;;20.29;32.58;100475.03;2110347;28;20048;-67
2021/12/28 02:18:02;;;;;;;13.40;8.27;;;;;;;20.30;32.51;100476.63;2112127;28;20058;-67
2021/12/28 02:19:12;;;;;;;16.02;8.70;;;;;;;20.30;32.42;100473.09;2112134;28;20052;-67
2021/12/28 02:20:20;;;;;;;14.25;8.75;;;;;;;20.28;32.58;100456.22;2112088;28;20153;-67
2021/12/28 02:21:25;;;;;;;14.50;8.77;;;;;;;20.29;32.49;100469.53;2119325;27;20039;-68
2021/12/28 02:22:29;;;;;;;17.75;8.55;;;;;;;20.30;32.42;100464.88;2120587;27;20079;-67
2021/12/28 02:23:33;;;;;;;16.10;8.38;;;;;;;20.29;32.41;100458.56;2120410;27;20043;-67
2021/12/28 02:24:37;;;;;;;15.25;8.48;;;;;;;20.28;32.42;100467.19;2119346;27;20715;-66
2021/12/28 02:25:44;;;;;;;14.40;8.98;;;;;;;20.29;32.37;100455.03;2119927;27;20584;-66
2021/12/28 02:26:47;;;;;;;17.63;8.73;;;;;;;20.29;32.37;100452.28;2120189;27;20062;-66
2021/12/28 02:27:51;;;;;;;15.50;8.77;;;;;;;20.28;32.47;100464.44;2120808;27;20042;-67
2021/12/28 02:28:54;;;;;;;14.20;8.15;;;;;;;20.28;32.50;100448.75;2120333;27;20062;-66
2021/12/28 02:30:01;;;;;;;14.55;8.70;;;;;;;20.27;32.34;100444.44;2120319;27;20468;-65
2021/12/28 02:31:07;;;;;;;14.40;8.43;;;;;;;20.26;32.25;100445.59;2119870;27;20051;-66
2021/12/28 02:32:11;;;;;;;23.05;8.80;;;;;;;20.26;32.43;100440.09;2120182;27;20055;-66
2021/12/28 02:33:17;;;;;;;15.80;8.55;;;;;;;20.26;32.38;100442.06;2120006;27;20056;-66
2021/12/28 02:34:24;;;;;;;14.48;8.68;;;;;;;20.26;32.30;100453.03;2120507;27;20051;-67
2021/12/28 02:35:31;;;;;;;13.27;8.27;;;;;;;20.25;32.37;100449.50;2119646;27;20051;-66
2021/12/28 02:36:34;;;;;;;15.00;8.10;;;;;;;20.25;32.38;100443.22;2120221;27;20494;-66
2021/12/28 02:37:39;;;;;;;16.13;8.25;;;;;;;20.25;32.45;100443.22;2119780;27;20047;-68
2021/12/28 02:38:43;;;;;;;16.15;8.43;;;;;;;20.25;32.45;100435.00;2120194;27;20059;-67
2021/12/28 02:39:49;;;;;;;15.98;9.05;;;;;;;20.23;32.47;100435.34;2120304;27;20069;-66
2021/12/28 02:40:56;;;;;;;14.90;8.68;;;;;;;20.23;32.26;100440.06;2120655;27;20869;-67
2021/12/28 02:42:00;;;;;;;16.58;8.63;;;;;;;20.23;32.39;100438.09;2120499;27;20059;-67
2021/12/28 02:43:08;;;;;;;13.60;8.23;;;;;;;20.21;32.35;100440.44;2119798;27;20581;-68
2021/12/28 02:44:12;;;;;;;15.63;8.15;;;;;;;20.20;32.56;100444.31;2120078;27;20046;-66
2021/12/28 02:45:21;;;;;;;16.63;8.45;;;;;;;20.20;32.33;100440.78;2119441;27;20055;-65
2021/12/28 02:46:29;;;;;;;13.45;8.32;;;;;;;20.19;32.49;100430.97;2119638;27;20081;-66
2021/12/28 02:47:33;;;;;;;23.52;8.85;;;;;;;20.18;32.44;100435.69;2119793;27;20047;-66
2021/12/28 02:48:41;;;;;;;13.38;7.97;;;;;;;20.19;32.45;100426.28;2120320;27;20047;-66
2021/12/28 02:49:45;;;;;;;15.30;7.80;;;;;;;20.19;32.45;100437.25;2119719;27;20062;-66
2021/12/28 02:50:54;;;;;;;14.00;8.43;;;;;;;20.19;32.35;100431.75;2119935;27;20061;-66
2021/12/28 02:51:58;;;;;;;15.05;8.55;;;;;;;20.19;32.47;100431.75;2120149;27;20589;-65
2021/12/28 02:53:03;;;;;;;17.02;8.65;;;;;;;20.19;32.38;100431.75;2120070;27;20506;-65
2021/12/28 02:54:10;;;;;;;12.38;7.38;;;;;;;20.18;32.28;100424.72;2119613;27;20047;-66
2021/12/28 02:55:17;;;;;;;13.32;8.45;;;;;;;20.19;32.45;100431.75;2119246;27;20277;-66
2021/12/28 02:56:26;;;;;;;17.60;8.65;;;;;;;20.20;32.42;100432.56;2118949;27;20086;-66
2021/12/28 02:57:30;;;;;;;18.45;7.88;;;;;;;20.19;32.40;100431.75;2119429;27;20047;-66
2021/12/28 02:58:37;;;;;;;12.00;7.15;;;;;;;20.19;32.39;100420.78;2120047;27;20043;-66
2021/12/28 02:59:52;;;;;;;12.40;7.80;;;;;;;20.20;32.40;100432.56;2120410;27;20047;-66
2021/12/28 03:00:58;;;;;;;14.93;8.35;;;;;;;20.19;32.41;100426.28;2119521;27;20051;-66
2021/12/28 03:02:05;;;;;;;13.10;8.02;;;;;;;20.18;32.47;100435.69;2120080;27;20068;-66
2021/12/28 03:03:14;;;;;;;13.85;7.70;;;;;;;20.19;32.43;100430.97;2119970;27;20463;-66
2021/12/28 03:04:23;;;;;;;13.15;7.38;;;;;;;20.18;32.34;100430.19;2119924;27;20054;-65
2021/12/28 03:05:25;;;;;;;13.88;7.68;;;;;;;20.19;32.38;100433.72;2120208;27;20804;-65
2021/12/28 03:06:34;;;;;;;14.23;7.32;;;;;;;20.18;32.46;100427.44;2119839;27;20062;-65
2021/12/28 03:07:38;;;;;;;12.43;7.82;;;;;;;20.18;32.38;100427.44;2119564;27;20057;-65
2021/12/28 03:08:48;;;;;;;13.43;7.75;;;;;;;20.17;32.50;100425.88;2120132;27;20066;-65
2021/12/28 03:09:51;;;;;;;12.23;7.50;;;;;;;20.18;32.38;100423.91;2120288;27;20051;-64
2021/12/28 03:10:56;;;;;;;13.43;7.60;;;;;;;20.18;32.34;100421.97;2117170;27;20055;-64
2021/12/28 03:12:02;;;;;;;14.57;7.40;;;;;;;20.17;32.31;100428.63;2111079;28;20067;-67
2021/12/28 03:13:09;;;;;;;14.25;8.23;;;;;;;20.18;32.40;100412.94;2110838;28;20056;-67
2021/12/28 03:14:12;;;;;;;13.40;7.85;;;;;;;20.18;32.43;100424.72;2110249;28;20047;-65
2021/12/28 03:15:17;;;;;;;12.52;7.75;;;;;;;20.17;32.33;100417.66;2111380;28;20059;-65
2021/12/28 03:16:22;;;;;;;15.40;7.78;;;;;;;20.18;32.27;100421.97;2111980;28;20050;-65
2021/12/28 03:17:26;;;;;;;12.50;7.68;;;;;;;20.18;32.20;100411.00;2111386;28;20054;-65
2021/12/28 03:18:29;;;;;;;12.10;7.70;;;;;;;20.17;32.31;100414.91;2110760;28;20058;-65
2021/12/28 03:19:34;;;;;;;12.93;7.30;;;;;;;20.17;32.34;100405.84;2111369;28;20055;-65
2021/12/28 03:20:38;;;;;;;12.13;7.50;;;;;;;20.18;32.33;100396.50;2112343;28;20048;-65
2021/12/28 03:21:46;;;;;;;15.10;7.18;;;;;;;20.18;32.07;100391.78;2111277;27;20117;-65
2021/12/28 03:22:50;;;;;;;13.40;7.75;;;;;;;20.18;32.09;100391.00;2111837;28;20414;-65
2021/12/28 03:23:58;;;;;;;12.45;7.32;;;;;;;20.17;32.13;100387.47;2110481;28;20063;-65
2021/12/28 03:25:01;;;;;;;14.10;7.45;;;;;;;20.17;32.06;100390.22;2110716;28;20721;-65
2021/12/28 03:26:09;;;;;;;14.73;8.13;;;;;;;20.17;32.03;100392.97;2111383;28;20056;-66
2021/12/28 03:27:12;;;;;;;13.65;7.25;;;;;;;20.16;32.18;100388.63;2110613;28;20040;-65
2021/12/28 03:28:19;;;;;;;13.23;7.60;;;;;;;20.17;32.08;100389.41;2111529;28;20048;-65
2021/12/28 03:29:25;;;;;;;13.10;7.43;;;;;;;20.16;32.04;100382.34;2111435;28;20059;-65
2021/12/28 03:30:28;;;;;;;12.48;7.65;;;;;;;20.14;32.15;100382.72;2111455;28;20047;-65
2021/12/28 03:31:33;;;;;;;12.20;7.32;;;;;;;20.16;32.10;100394.09;2111528;28;20035;-64
2021/12/28 03:32:39;;;;;;;12.18;7.20;;;;;;;20.16;32.16;100383.13;2111505;28;20056;-65
2021/12/28 03:33:46;;;;;;;12.82;7.22;;;;;;;20.16;32.09;100385.09;2111086;28;20052;-65
2021/12/28 03:34:50;;;;;;;12.45;7.78;;;;;;;20.17;32.02;100387.47;2111701;28;20051;-65
2021/12/28 03:35:57;;;;;;;13.80;7.13;;;;;;;20.16;32.03;100382.34;2111641;28;20517;-66
2021/12/28 03:37:06;;;;;;;14.95;6.97;;;;;;;20.16;31.95;100394.09;2111616;28;20047;-64
2021/12/28 03:38:10;;;;;;;12.63;8.02;;;;;;;20.15;32.02;100387.03;2111660;28;20375;-64
2021/12/28 03:39:15;;;;;;;12.27;7.15;;;;;;;20.17;32.03;100381.19;2111017;28;20056;-65
2021/12/28 03:40:21;;;;;;;12.23;7.50;;;;;;;20.17;32.11;100386.66;2110911;28;20051;-65
2021/12/28 03:41:31;;;;;;;12.05;6.88;;;;;;;20.16;32.10;100388.63;2110179;28;20070;-67
2021/12/28 03:42:35;;;;;;;13.32;7.47;;;;;;;20.17;32.03;100395.72;2111049;28;20384;-65
2021/12/28 03:43:43;;;;;;;11.70;7.07;;;;;;;20.18;32.08;100391.78;2111151;28;20047;-65
2021/12/28 03:44:46;;;;;;;12.30;7.50;;;;;;;20.17;32.28;100390.22;2111721;28;20604;-65
2021/12/28 03:45:52;;;;;;;11.35;7.13;;;;;;;20.15;32.33;100387.03;2111453;28;20403;-65
2021/12/28 03:46:55;;;;;;;13.90;7.47;;;;;;;20.16;32.09;100383.13;2111974;28;20035;-65
2021/12/28 03:48:01;;;;;;;12.52;7.07;;;;;;;20.17;32.19;100378.44;2110595;28;20051;-66
2021/12/28 03:49:07;;;;;;;12.27;7.32;;;;;;;20.17;32.18;100383.91;2110087;28;20055;-65
2021/12/28 03:50:11;;;;;;;12.65;7.22;;;;;;;20.15;32.18;100391.75;2110465;28;20043;-65
2021/12/28 03:51:17;;;;;;;13.07;7.68;;;;;;;20.17;32.12;100384.72;2111649;28;20050;-65
2021/12/28 03:52:24;;;;;;;12.05;7.32;;;;;;;20.19;32.12;100376.13;2111453;28;20051;-65
2021/12/28 03:53:29;;;;;;;12.93;6.95;;;;;;;20.19;32.10;100379.66;2112103;28;20043;-66
2021/12/28 03:54:32;;;;;;;12.60;7.28;;;;;;;20.19;32.12;100376.13;2111775;28;20039;-66
2021/12/28 03:55:38;;;;;;;11.43;7.05;;;;;;;20.20;32.16;100385.94;2111345;28;20640;-66
2021/12/28 03:56:41;;;;;;;10.95;7.05;;;;;;;20.19;32.28;100390.63;2111110;28;20044;-66
2021/12/28 03:57:46;;;;;;;12.02;7.28;;;;;;;20.20;32.18;100383.97;2111212;28;20513;-66
2021/12/28 03:58:55;;;;;;;12.82;6.78;;;;;;;20.19;32.19;100389.84;2111234;28;20156;-66
2021/12/28 03:59:58;;;;;;;13.13;6.95;;;;;;;20.18;32.27;100383.56;2111379;28;20056;-66
2021/12/28 04:01:06;;;;;;;11.65;6.70;;;;;;;20.18;32.32;100386.31;2111524;28;20060;-66
2021/12/28 04:02:13;;;;;;;;;;;;;;;20.18;32.15;100380.81;2111236;28;20047;-66
2021/12/28 04:03:19;;;;;;;12.02;6.78;;;;;;;20.16;32.22;100372.16;2111357;28;19919;-66
2021/12/28 04:04:24;;;;;;;11.30;6.85;;;;;;;20.17;31.96;100383.91;2110713;28;20074;-66
2021/12/28 04:05:29;;;;;;;14.38;7.30;;;;;;;20.16;32.31;100372.16;2109655;28;20047;-66
2021/12/28 04:06:35;;;;;;;12.65;7.38;;;;;;;20.18;32.31;100369.06;2111122;28;20059;-67
2021/12/28 04:07:40;;;;;;;11.90;6.82;;;;;;;20.15;32.19;100364.31;2111830;28;21333;-66
2021/12/28 04:08:45;;;;;;;10.90;6.72;;;;;;;20.19;32.21;100359.66;2111860;28;20063;-66
2021/12/28 04:10:01;;;;;;;13.05;7.22;;;;;;;20.20;32.17;100377.69;2111321;28;20589;-67
2021/12/28 04:11:14;;;;;;;12.95;7.28;;;;;;;20.20;32.10;100374.97;2111212;28;20056;-67
2021/12/28 04:12:17;;;;;;;11.80;6.80;;;;;;;20.19;32.25;100371.44;2111003;28;20044;-67
2021/12/28 04:13:25;;;;;;;11.55;7.00;;;;;;;20.18;32.16;100364.38;2111451;28;20047;-67
2021/12/28 04:14:31;;;;;;;13.57;6.45;;;;;;;20.16;32.27;100366.69;2111387;28;20051;-68
2021/12/28 04:15:36;;;;;;;13.10;6.70;;;;;;;20.17;32.21;100365.53;2111471;28;20055;-68
2021/12/28 04:16:41;;;;;;;10.68;6.80;;;;;;;20.17;32.16;100361.97;2111204;28;20048;-68
2021/12/28 04:17:47;;;;;;;10.93;6.80;;;;;;;20.16;32.19;100372.16;2111052;28;20047;-66
2021/12/28 04:18:53;;;;;;;11.45;6.45;;;;;;;20.17;32.25;100362.78;2110930;28;20059;-66
2021/12/28 04:19:58;;;;;;;11.45;6.85;;;;;;;20.17;32.21;100367.47;2111130;28;20055;-66
2021/12/28 04:21:02;;;;;;;10.23;6.35;;;;;;;20.16;32.20;100369.41;2111923;28;20047;-67
2021/12/28 04:22:08;;;;;;;12.45;6.95;;;;;;;20.16;32.20;100366.69;2110589;28;20051;-67
2021/12/28 04:23:14;;;;;;;20.45;7.15;;;;;;;20.17;32.19;100361.97;2110661;28;20043;-67
2021/12/28 04:24:18;;;;;;;11.10;6.93;;;;;;;20.17;32.14;100362.78;2111032;28;20054;-67
2021/12/28 04:25:22;;;;;;;11.55;6.70;;;;;;;20.17;32.24;100367.47;2110264;28;20510;-67
2021/12/28 04:26:29;;;;;;;12.73;6.50;;;;;;;20.16;32.06;100363.94;2110328;28;20521;-66
2021/12/28 04:27:32;;;;;;;11.73;6.32;;;;;;;20.16;32.26;100366.69;2111775;28;20055;-66
2021/12/28 04:28:37;;;;;;;11.15;6.60;;;;;;;20.17;32.14;100360.06;2111683;28;20407;-67
2021/12/28 04:29:42;;;;;;;11.93;7.20;;;;;;;20.17;32.22;100376.50;2111561;28;20044;-66
2021/12/28 04:30:47;;;;;;;11.57;6.70;;;;;;;20.17;32.24;100362.78;2112468;28;20502;-66
2021/12/28 04:31:52;;;;;;;14.73;6.63;;;;;;;20.17;32.28;100368.28;2113039;28;20729;-63
2021/12/28 04:32:56;;;;;;;10.40;6.20;;;;;;;20.16;32.25;100366.69;2112980;28;20062;-63
2021/12/28 04:34:04;;;;;;;10.05;6.47;;;;;;;20.16;32.42;100372.16;2113497;28;20052;-64
2021/12/28 04:35:10;;;;;;;12.00;6.55;;;;;;;20.17;32.37;100375.69;2113486;28;20039;-63
2021/12/28 04:36:18;;;;;;;12.38;6.43;;;;;;;20.17;32.29;100365.53;2113072;28;20367;-64
2021/12/28 04:37:22;;;;;;;11.70;6.70;;;;;;;20.18;32.33;100367.13;2113208;28;20394;-66
2021/12/28 04:38:30;;;;;;;11.18;6.10;;;;;;;20.19;32.19;100365.16;2112852;28;20055;-67
2021/12/28 04:39:36;;;;;;;10.40;6.30;;;;;;;20.20;32.31;100361.25;2113265;28;20040;-66
2021/12/28 04:40:41;;;;;;;12.90;7.00;;;;;;;20.18;32.26;100358.88;2112707;28;20059;-66
2021/12/28 04:41:46;;;;;;;12.63;6.38;;;;;;;20.19;32.34;100368.69;2113150;27;20054;-66
2021/12/28 04:42:53;;;;;;;11.70;6.47;;;;;;;20.20;32.34;100353.81;2112489;28;20056;-66
2021/12/28 04:44:00;;;;;;;13.02;6.85;;;;;;;20.21;32.40;100352.66;2111844;28;20043;-64
2021/12/28 04:45:06;;;;;;;9.82;6.18;;;;;;;20.21;32.29;100352.66;2113244;28;20059;-64
2021/12/28 04:46:10;;;;;;;10.32;6.85;;;;;;;20.20;32.34;100351.06;2113092;28;20491;-64
2021/12/28 04:47:16;;;;;;;10.23;6.47;;;;;;;20.19;32.01;100344.00;2112578;28;20036;-63
2021/12/28 04:48:20;;;;;;;10.73;6.60;;;;;;;20.21;32.26;100340.91;2112566;28;20055;-64
2021/12/28 04:49:27;;;;;;;12.45;7.00;;;;;;;20.15;32.22;100343.16;2113111;28;20043;-63
2021/12/28 04:50:36;;;;;;;10.02;6.15;;;;;;;20.21;32.22;100344.44;2113202;28;20063;-63
2021/12/28 04:51:41;;;;;;;11.13;6.63;;;;;;;20.23;32.13;100344.84;2112763;28;20047;-66
2021/12/28 04:52:44;;;;;;;10.23;6.13;;;;;;;20.24;32.17;100340.16;2113056;27;20402;-65
2021/12/28 04:53:55;;;;;;;12.23;6.40;;;;;;;20.23;32.23;100350.31;2112842;28;20051;-66
2021/12/28 04:54:58;;;;;;;11.48;6.85;;;;;;;20.23;32.32;100336.59;2112032;28;20058;-66
2021/12/28 04:56:03;;;;;;;12.55;6.47;;;;;;;20.22;32.32;100343.25;2111794;28;20059;-66
2021/12/28 04:57:06;;;;;;;12.48;6.55;;;;;;;20.22;32.23;100337.78;2112412;28;20065;-65
2021/12/28 04:58:16;;;;;;;10.70;6.38;;;;;;;20.21;32.23;100340.91;2112606;28;20482;-65
2021/12/28 04:59:21;;;;;;;12.27;6.32;;;;;;;20.20;32.19;100337.34;2112856;28;20043;-66
2021/12/28 05:00:28;;;;;;;9.40;6.38;;;;;;;20.19;32.28;100338.50;2112187;28;20048;-66
2021/12/28 05:01:31;;;;;;;11.75;6.70;;;;;;;20.20;32.25;100334.59;2111626;28;20054;-66
2021/12/28 05:02:37;;;;;;;10.50;6.30;;;;;;;20.21;32.14;100332.69;2112651;28;20414;-67